sensor_id;sensor_type;location;lat;lon;timestamp;P1;durP1;ratioP1;P2;durP2;ratioP2
44536;SDS011;30245;51.966;6.292;2023-11-19T00:00:35;4.47;;;3.17;;
44536;SDS011;30245;51.966;6.292;2023-11-19T00:03:01;4.85;;;4.45;;
44536;SDS011;30245;51.966;6.292;2023-11-19T00:05:26;4.28;;;3.97;;
44536;SDS011;30245;51.966;6.292;2023-11-19T00:07:55;5.28;;;4.45;;
44536;SDS011;30245;51.966;6.292;2023-11-19T00:10:20;4.90;;;4.38;;
44536;SDS011;30245;51.966;6.292;2023-11-19T00:12:47;4.40;;;3.75;;
44536;SDS011;30245;51.966;6.292;2023-11-19T00:15:13;4.75;;;4.28;;
44536;SDS011;30245;51.966;6.292;2023-11-19T00:17:44;3.85;;;3.58;;
44536;SDS011;30245;51.966;6.292;2023-11-19T00:20:11;5.35;;;4.88;;
44536;SDS011;30245;51.966;6.292;2023-11-19T00:22:37;5.70;;;5.20;;
44536;SDS011;30245;51.966;6.292;2023-11-19T00:25:03;4.72;;;4.43;;
44536;SDS011;30245;51.966;6.292;2023-11-19T00:27:30;5.32;;;4.88;;
44536;SDS011;30245;51.966;6.292;2023-11-19T00:29:56;6.13;;;5.63;;
44536;SDS011;30245;51.966;6.292;2023-11-19T00:32:22;5.00;;;4.38;;
44536;SDS011;30245;51.966;6.292;2023-11-19T00:34:47;5.88;;;4.43;;
44536;SDS011;30245;51.966;6.292;2023-11-19T00:37:16;5.25;;;3.88;;
44536;SDS011;30245;51.966;6.292;2023-11-19T00:39:42;3.47;;;3.17;;
44536;SDS011;30245;51.966;6.292;2023-11-19T00:42:08;4.43;;;3.47;;
44536;SDS011;30245;51.966;6.292;2023-11-19T00:44:35;4.18;;;3.88;;
44536;SDS011;30245;51.966;6.292;2023-11-19T00:47:01;4.75;;;4.45;;
44536;SDS011;30245;51.966;6.292;2023-11-19T00:49:27;4.70;;;3.88;;
44536;SDS011;30245;51.966;6.292;2023-11-19T00:51:53;4.80;;;4.10;;
44536;SDS011;30245;51.966;6.292;2023-11-19T00:54:18;6.32;;;3.20;;
44536;SDS011;30245;51.966;6.292;2023-11-19T00:56:44;4.93;;;4.43;;
44536;SDS011;30245;51.966;6.292;2023-11-19T00:59:09;5.80;;;3.90;;
44536;SDS011;30245;51.966;6.292;2023-11-19T01:01:35;6.53;;;4.50;;
44536;SDS011;30245;51.966;6.292;2023-11-19T01:04:01;6.35;;;4.75;;
44536;SDS011;30245;51.966;6.292;2023-11-19T01:06:27;8.25;;;4.63;;
44536;SDS011;30245;51.966;6.292;2023-11-19T01:08:54;3.63;;;3.30;;
44536;SDS011;30245;51.966;6.292;2023-11-19T01:11:23;7.28;;;3.30;;
44536;SDS011;30245;51.966;6.292;2023-11-19T01:13:49;5.38;;;3.70;;
44536;SDS011;30245;51.966;6.292;2023-11-19T01:16:15;5.78;;;3.20;;
44536;SDS011;30245;51.966;6.292;2023-11-19T01:18:41;3.83;;;2.65;;
44536;SDS011;30245;51.966;6.292;2023-11-19T01:21:06;3.10;;;1.70;;
44536;SDS011;30245;51.966;6.292;2023-11-19T01:23:32;4.55;;;2.53;;
44536;SDS011;30245;51.966;6.292;2023-11-19T01:25:59;5.72;;;3.30;;
44536;SDS011;30245;51.966;6.292;2023-11-19T01:28:24;6.97;;;3.70;;
44536;SDS011;30245;51.966;6.292;2023-11-19T01:30:53;6.47;;;3.72;;
44536;SDS011;30245;51.966;6.292;2023-11-19T01:33:18;6.55;;;3.67;;
44536;SDS011;30245;51.966;6.292;2023-11-19T01:35:44;9.48;;;3.72;;
44536;SDS011;30245;51.966;6.292;2023-11-19T01:38:10;8.23;;;4.13;;
44536;SDS011;30245;51.966;6.292;2023-11-19T01:40:35;8.40;;;3.13;;
44536;SDS011;30245;51.966;6.292;2023-11-19T01:43:02;4.80;;;2.58;;
44536;SDS011;30245;51.966;6.292;2023-11-19T01:45:29;9.30;;;3.42;;
44536;SDS011;30245;51.966;6.292;2023-11-19T01:47:56;6.93;;;3.53;;
44536;SDS011;30245;51.966;6.292;2023-11-19T01:50:23;6.23;;;2.80;;
44536;SDS011;30245;51.966;6.292;2023-11-19T01:52:53;7.70;;;3.42;;
44536;SDS011;30245;51.966;6.292;2023-11-19T01:55:20;4.78;;;2.80;;
44536;SDS011;30245;51.966;6.292;2023-11-19T01:57:46;11.40;;;3.20;;
44536;SDS011;30245;51.966;6.292;2023-11-19T02:00:14;6.97;;;2.28;;
44536;SDS011;30245;51.966;6.292;2023-11-19T02:02:41;4.55;;;1.52;;
44536;SDS011;30245;51.966;6.292;2023-11-19T02:05:08;6.95;;;1.77;;
44536;SDS011;30245;51.966;6.292;2023-11-19T02:07:35;10.93;;;2.13;;
44536;SDS011;30245;51.966;6.292;2023-11-19T02:10:01;9.02;;;1.98;;
44536;SDS011;30245;51.966;6.292;2023-11-19T02:12:27;5.82;;;2.47;;
44536;SDS011;30245;51.966;6.292;2023-11-19T02:14:58;7.88;;;1.98;;
44536;SDS011;30245;51.966;6.292;2023-11-19T02:17:25;9.20;;;1.77;;
44536;SDS011;30245;51.966;6.292;2023-11-19T02:19:54;7.40;;;2.72;;
44536;SDS011;30245;51.966;6.292;2023-11-19T02:22:19;13.95;;;2.90;;
44536;SDS011;30245;51.966;6.292;2023-11-19T02:24:45;9.13;;;2.25;;
44536;SDS011;30245;51.966;6.292;2023-11-19T02:27:16;8.40;;;1.75;;
44536;SDS011;30245;51.966;6.292;2023-11-19T02:29:50;13.20;;;2.65;;
44536;SDS011;30245;51.966;6.292;2023-11-19T02:32:16;10.80;;;1.92;;
44536;SDS011;30245;51.966;6.292;2023-11-19T02:34:41;11.13;;;2.15;;
44536;SDS011;30245;51.966;6.292;2023-11-19T02:37:07;11.00;;;3.10;;
44536;SDS011;30245;51.966;6.292;2023-11-19T02:39:33;14.55;;;3.20;;
44536;SDS011;30245;51.966;6.292;2023-11-19T02:41:58;13.45;;;2.72;;
44536;SDS011;30245;51.966;6.292;2023-11-19T02:44:25;10.82;;;1.48;;
44536;SDS011;30245;51.966;6.292;2023-11-19T02:46:53;10.13;;;2.83;;
44536;SDS011;30245;51.966;6.292;2023-11-19T02:49:18;12.52;;;2.42;;
44536;SDS011;30245;51.966;6.292;2023-11-19T02:51:44;12.85;;;1.92;;
44536;SDS011;30245;51.966;6.292;2023-11-19T02:54:10;11.35;;;1.83;;
44536;SDS011;30245;51.966;6.292;2023-11-19T02:56:35;14.20;;;2.88;;
44536;SDS011;30245;51.966;6.292;2023-11-19T02:59:02;11.15;;;2.20;;
44536;SDS011;30245;51.966;6.292;2023-11-19T03:01:40;17.02;;;1.92;;
44536;SDS011;30245;51.966;6.292;2023-11-19T03:06:37;16.33;;;3.00;;
44536;SDS011;30245;51.966;6.292;2023-11-19T03:09:02;17.35;;;2.53;;
44536;SDS011;30245;51.966;6.292;2023-11-19T03:11:33;20.15;;;3.67;;
44536;SDS011;30245;51.966;6.292;2023-11-19T03:13:59;20.95;;;2.75;;
44536;SDS011;30245;51.966;6.292;2023-11-19T03:16:24;8.95;;;2.70;;
44536;SDS011;30245;51.966;6.292;2023-11-19T03:18:50;13.05;;;2.22;;
44536;SDS011;30245;51.966;6.292;2023-11-19T03:21:15;12.65;;;1.58;;
44536;SDS011;30245;51.966;6.292;2023-11-19T03:23:41;14.93;;;2.40;;
44536;SDS011;30245;51.966;6.292;2023-11-19T03:26:06;23.08;;;2.40;;
44536;SDS011;30245;51.966;6.292;2023-11-19T03:28:33;10.77;;;2.45;;
44536;SDS011;30245;51.966;6.292;2023-11-19T03:30:58;21.45;;;2.05;;
44536;SDS011;30245;51.966;6.292;2023-11-19T03:33:24;28.60;;;3.00;;
44536;SDS011;30245;51.966;6.292;2023-11-19T03:35:50;16.67;;;2.95;;
44536;SDS011;30245;51.966;6.292;2023-11-19T03:38:17;19.75;;;1.98;;
44536;SDS011;30245;51.966;6.292;2023-11-19T03:40:42;22.02;;;2.88;;
44536;SDS011;30245;51.966;6.292;2023-11-19T03:43:08;21.27;;;4.75;;
44536;SDS011;30245;51.966;6.292;2023-11-19T03:45:34;23.05;;;2.83;;
44536;SDS011;30245;51.966;6.292;2023-11-19T03:48:01;21.15;;;2.50;;
44536;SDS011;30245;51.966;6.292;2023-11-19T03:50:27;19.98;;;3.22;;
44536;SDS011;30245;51.966;6.292;2023-11-19T03:52:52;24.55;;;4.30;;
44536;SDS011;30245;51.966;6.292;2023-11-19T03:55:18;12.75;;;2.50;;
44536;SDS011;30245;51.966;6.292;2023-11-19T03:57:43;27.80;;;4.18;;
44536;SDS011;30245;51.966;6.292;2023-11-19T04:00:09;23.35;;;2.90;;
44536;SDS011;30245;51.966;6.292;2023-11-19T04:02:36;21.08;;;3.97;;
44536;SDS011;30245;51.966;6.292;2023-11-19T04:05:02;17.98;;;2.38;;
44536;SDS011;30245;51.966;6.292;2023-11-19T04:07:29;24.98;;;2.50;;
44536;SDS011;30245;51.966;6.292;2023-11-19T04:09:54;20.25;;;2.33;;
44536;SDS011;30245;51.966;6.292;2023-11-19T04:12:20;18.92;;;2.78;;
44536;SDS011;30245;51.966;6.292;2023-11-19T04:14:47;14.60;;;2.03;;
44536;SDS011;30245;51.966;6.292;2023-11-19T04:17:12;21.90;;;3.33;;
44536;SDS011;30245;51.966;6.292;2023-11-19T04:19:38;22.02;;;2.65;;
44536;SDS011;30245;51.966;6.292;2023-11-19T04:22:06;25.00;;;2.55;;
44536;SDS011;30245;51.966;6.292;2023-11-19T04:24:32;32.85;;;4.82;;
44536;SDS011;30245;51.966;6.292;2023-11-19T04:26:58;17.77;;;3.78;;
44536;SDS011;30245;51.966;6.292;2023-11-19T04:29:23;21.27;;;4.05;;
44536;SDS011;30245;51.966;6.292;2023-11-19T04:31:49;13.43;;;2.25;;
44536;SDS011;30245;51.966;6.292;2023-11-19T04:34:14;20.90;;;3.33;;
44536;SDS011;30245;51.966;6.292;2023-11-19T04:36:40;18.60;;;3.22;;
44536;SDS011;30245;51.966;6.292;2023-11-19T04:39:06;15.07;;;2.22;;
44536;SDS011;30245;51.966;6.292;2023-11-19T04:41:45;25.88;;;4.47;;
44536;SDS011;30245;51.966;6.292;2023-11-19T04:44:12;25.65;;;3.53;;
44536;SDS011;30245;51.966;6.292;2023-11-19T04:46:38;18.10;;;2.40;;
44536;SDS011;30245;51.966;6.292;2023-11-19T04:49:03;19.33;;;2.92;;
44536;SDS011;30245;51.966;6.292;2023-11-19T04:51:29;15.27;;;2.15;;
44536;SDS011;30245;51.966;6.292;2023-11-19T04:53:55;18.45;;;2.80;;
44536;SDS011;30245;51.966;6.292;2023-11-19T04:56:21;13.15;;;1.92;;
44536;SDS011;30245;51.966;6.292;2023-11-19T04:58:48;14.35;;;2.95;;
44536;SDS011;30245;51.966;6.292;2023-11-19T05:01:14;20.70;;;4.05;;
44536;SDS011;30245;51.966;6.292;2023-11-19T05:03:43;23.17;;;3.63;;
44536;SDS011;30245;51.966;6.292;2023-11-19T05:06:09;24.33;;;5.22;;
44536;SDS011;30245;51.966;6.292;2023-11-19T05:08:35;28.45;;;5.13;;
44536;SDS011;30245;51.966;6.292;2023-11-19T05:11:01;21.73;;;4.25;;
44536;SDS011;30245;51.966;6.292;2023-11-19T05:13:27;21.30;;;3.65;;
44536;SDS011;30245;51.966;6.292;2023-11-19T05:15:52;17.55;;;2.22;;
44536;SDS011;30245;51.966;6.292;2023-11-19T05:18:18;18.73;;;1.90;;
44536;SDS011;30245;51.966;6.292;2023-11-19T05:20:44;16.60;;;2.67;;
44536;SDS011;30245;51.966;6.292;2023-11-19T05:23:10;18.90;;;3.22;;
44536;SDS011;30245;51.966;6.292;2023-11-19T05:25:36;20.52;;;4.05;;
44536;SDS011;30245;51.966;6.292;2023-11-19T05:28:02;15.70;;;2.97;;
44536;SDS011;30245;51.966;6.292;2023-11-19T05:30:27;21.10;;;2.67;;
44536;SDS011;30245;51.966;6.292;2023-11-19T05:32:53;21.15;;;2.85;;
44536;SDS011;30245;51.966;6.292;2023-11-19T05:35:18;16.77;;;2.25;;
44536;SDS011;30245;51.966;6.292;2023-11-19T05:37:44;18.08;;;2.97;;
44536;SDS011;30245;51.966;6.292;2023-11-19T05:40:09;21.25;;;3.35;;
44536;SDS011;30245;51.966;6.292;2023-11-19T05:42:42;25.73;;;3.65;;
44536;SDS011;30245;51.966;6.292;2023-11-19T05:45:09;19.10;;;3.08;;
44536;SDS011;30245;51.966;6.292;2023-11-19T05:47:36;25.85;;;4.18;;
44536;SDS011;30245;51.966;6.292;2023-11-19T05:50:02;31.23;;;3.70;;
44536;SDS011;30245;51.966;6.292;2023-11-19T05:52:28;20.98;;;3.53;;
44536;SDS011;30245;51.966;6.292;2023-11-19T05:54:58;18.25;;;2.08;;
44536;SDS011;30245;51.966;6.292;2023-11-19T05:57:29;25.05;;;3.95;;
44536;SDS011;30245;51.966;6.292;2023-11-19T05:59:55;25.70;;;3.80;;
44536;SDS011;30245;51.966;6.292;2023-11-19T06:02:21;29.05;;;5.05;;
44536;SDS011;30245;51.966;6.292;2023-11-19T06:04:46;24.33;;;3.47;;
44536;SDS011;30245;51.966;6.292;2023-11-19T06:07:13;19.25;;;2.72;;
44536;SDS011;30245;51.966;6.292;2023-11-19T06:09:40;21.60;;;3.20;;
44536;SDS011;30245;51.966;6.292;2023-11-19T06:12:06;23.70;;;3.85;;
44536;SDS011;30245;51.966;6.292;2023-11-19T06:14:32;24.42;;;4.15;;
44536;SDS011;30245;51.966;6.292;2023-11-19T06:16:58;26.75;;;4.20;;
44536;SDS011;30245;51.966;6.292;2023-11-19T06:19:23;17.05;;;3.83;;
44536;SDS011;30245;51.966;6.292;2023-11-19T06:21:50;26.05;;;4.45;;
44536;SDS011;30245;51.966;6.292;2023-11-19T06:24:15;20.88;;;4.10;;
44536;SDS011;30245;51.966;6.292;2023-11-19T06:26:41;41.75;;;3.97;;
44536;SDS011;30245;51.966;6.292;2023-11-19T06:29:07;28.00;;;4.10;;
44536;SDS011;30245;51.966;6.292;2023-11-19T06:31:32;18.75;;;3.90;;
44536;SDS011;30245;51.966;6.292;2023-11-19T06:33:58;26.05;;;3.58;;
44536;SDS011;30245;51.966;6.292;2023-11-19T06:36:24;16.75;;;2.85;;
44536;SDS011;30245;51.966;6.292;2023-11-19T06:38:49;16.60;;;3.90;;
44536;SDS011;30245;51.966;6.292;2023-11-19T06:41:15;16.50;;;3.80;;
44536;SDS011;30245;51.966;6.292;2023-11-19T06:43:40;29.27;;;3.92;;
44536;SDS011;30245;51.966;6.292;2023-11-19T06:46:13;22.15;;;2.92;;
44536;SDS011;30245;51.966;6.292;2023-11-19T06:48:40;23.98;;;4.18;;
44536;SDS011;30245;51.966;6.292;2023-11-19T06:51:06;30.65;;;4.22;;
44536;SDS011;30245;51.966;6.292;2023-11-19T06:53:31;27.42;;;4.07;;
44536;SDS011;30245;51.966;6.292;2023-11-19T06:55:57;22.38;;;2.50;;
44536;SDS011;30245;51.966;6.292;2023-11-19T06:58:22;15.52;;;2.50;;
44536;SDS011;30245;51.966;6.292;2023-11-19T07:00:48;16.08;;;3.65;;
44536;SDS011;30245;51.966;6.292;2023-11-19T07:03:14;20.50;;;2.95;;
44536;SDS011;30245;51.966;6.292;2023-11-19T07:05:41;22.27;;;3.38;;
44536;SDS011;30245;51.966;6.292;2023-11-19T07:08:06;24.95;;;2.13;;
44536;SDS011;30245;51.966;6.292;2023-11-19T07:10:32;19.52;;;2.38;;
44536;SDS011;30245;51.966;6.292;2023-11-19T07:12:58;20.27;;;4.25;;
44536;SDS011;30245;51.966;6.292;2023-11-19T07:15:24;12.38;;;2.38;;
44536;SDS011;30245;51.966;6.292;2023-11-19T07:17:49;27.90;;;4.28;;
44536;SDS011;30245;51.966;6.292;2023-11-19T07:20:15;20.83;;;2.75;;
44536;SDS011;30245;51.966;6.292;2023-11-19T07:22:44;22.27;;;3.17;;
44536;SDS011;30245;51.966;6.292;2023-11-19T07:25:13;16.52;;;2.58;;
44536;SDS011;30245;51.966;6.292;2023-11-19T07:27:38;23.88;;;2.97;;
44536;SDS011;30245;51.966;6.292;2023-11-19T07:30:05;23.45;;;3.45;;
44536;SDS011;30245;51.966;6.292;2023-11-19T07:32:32;20.63;;;2.67;;
44536;SDS011;30245;51.966;6.292;2023-11-19T07:34:58;28.90;;;4.75;;
44536;SDS011;30245;51.966;6.292;2023-11-19T07:37:24;26.60;;;4.00;;
44536;SDS011;30245;51.966;6.292;2023-11-19T07:39:51;21.90;;;3.78;;
44536;SDS011;30245;51.966;6.292;2023-11-19T07:42:16;20.48;;;3.10;;
44536;SDS011;30245;51.966;6.292;2023-11-19T07:44:43;25.65;;;4.22;;
44536;SDS011;30245;51.966;6.292;2023-11-19T07:47:09;21.58;;;3.80;;
44536;SDS011;30245;51.966;6.292;2023-11-19T07:49:35;18.77;;;3.78;;
44536;SDS011;30245;51.966;6.292;2023-11-19T07:52:00;11.32;;;2.00;;
44536;SDS011;30245;51.966;6.292;2023-11-19T07:54:27;17.95;;;2.45;;
44536;SDS011;30245;51.966;6.292;2023-11-19T07:56:53;22.75;;;3.30;;
44536;SDS011;30245;51.966;6.292;2023-11-19T07:59:19;30.73;;;3.17;;
44536;SDS011;30245;51.966;6.292;2023-11-19T08:01:45;26.08;;;4.57;;
44536;SDS011;30245;51.966;6.292;2023-11-19T08:04:10;23.88;;;3.80;;
44536;SDS011;30245;51.966;6.292;2023-11-19T08:06:36;26.15;;;3.22;;
44536;SDS011;30245;51.966;6.292;2023-11-19T08:09:02;16.15;;;2.85;;
44536;SDS011;30245;51.966;6.292;2023-11-19T08:11:27;32.28;;;4.25;;
44536;SDS011;30245;51.966;6.292;2023-11-19T08:13:53;25.35;;;3.50;;
44536;SDS011;30245;51.966;6.292;2023-11-19T08:16:18;34.67;;;4.07;;
44536;SDS011;30245;51.966;6.292;2023-11-19T08:18:44;20.95;;;3.20;;
44536;SDS011;30245;51.966;6.292;2023-11-19T08:21:09;19.52;;;3.00;;
44536;SDS011;30245;51.966;6.292;2023-11-19T08:23:36;24.88;;;5.88;;
44536;SDS011;30245;51.966;6.292;2023-11-19T08:26:02;25.15;;;4.43;;
44536;SDS011;30245;51.966;6.292;2023-11-19T08:28:28;17.67;;;2.60;;
44536;SDS011;30245;51.966;6.292;2023-11-19T08:30:53;20.88;;;3.03;;
44536;SDS011;30245;51.966;6.292;2023-11-19T08:33:19;23.45;;;3.47;;
44536;SDS011;30245;51.966;6.292;2023-11-19T08:35:47;18.67;;;3.20;;
44536;SDS011;30245;51.966;6.292;2023-11-19T08:38:13;20.35;;;2.97;;
44536;SDS011;30245;51.966;6.292;2023-11-19T08:40:38;20.63;;;2.35;;
44536;SDS011;30245;51.966;6.292;2023-11-19T08:43:04;26.80;;;4.75;;
44536;SDS011;30245;51.966;6.292;2023-11-19T08:45:30;25.90;;;3.85;;
44536;SDS011;30245;51.966;6.292;2023-11-19T08:47:56;33.42;;;5.93;;
44536;SDS011;30245;51.966;6.292;2023-11-19T08:50:22;38.70;;;6.32;;
44536;SDS011;30245;51.966;6.292;2023-11-19T08:52:48;19.60;;;5.53;;
44536;SDS011;30245;51.966;6.292;2023-11-19T08:55:14;28.27;;;4.18;;
44536;SDS011;30245;51.966;6.292;2023-11-19T08:57:40;29.70;;;3.58;;
44536;SDS011;30245;51.966;6.292;2023-11-19T09:00:05;16.60;;;3.13;;
44536;SDS011;30245;51.966;6.292;2023-11-19T09:02:35;31.42;;;5.22;;
44536;SDS011;30245;51.966;6.292;2023-11-19T09:05:02;20.85;;;3.28;;
44536;SDS011;30245;51.966;6.292;2023-11-19T09:07:28;29.70;;;5.68;;
44536;SDS011;30245;51.966;6.292;2023-11-19T09:09:53;34.92;;;4.38;;
44536;SDS011;30245;51.966;6.292;2023-11-19T09:12:19;26.52;;;4.82;;
44536;SDS011;30245;51.966;6.292;2023-11-19T09:14:44;27.73;;;4.65;;
44536;SDS011;30245;51.966;6.292;2023-11-19T09:17:11;23.45;;;2.78;;
44536;SDS011;30245;51.966;6.292;2023-11-19T09:19:36;21.88;;;3.63;;
44536;SDS011;30245;51.966;6.292;2023-11-19T09:22:02;28.13;;;4.53;;
44536;SDS011;30245;51.966;6.292;2023-11-19T09:24:27;32.05;;;5.05;;
44536;SDS011;30245;51.966;6.292;2023-11-19T09:26:53;24.58;;;5.03;;
44536;SDS011;30245;51.966;6.292;2023-11-19T09:29:20;25.55;;;3.50;;
44536;SDS011;30245;51.966;6.292;2023-11-19T09:31:46;26.52;;;4.43;;
44536;SDS011;30245;51.966;6.292;2023-11-19T09:34:12;25.10;;;3.65;;
44536;SDS011;30245;51.966;6.292;2023-11-19T09:36:37;26.48;;;3.78;;
44536;SDS011;30245;51.966;6.292;2023-11-19T09:39:03;17.27;;;2.92;;
44536;SDS011;30245;51.966;6.292;2023-11-19T09:41:30;21.55;;;3.88;;
44536;SDS011;30245;51.966;6.292;2023-11-19T09:43:57;24.88;;;3.72;;
44536;SDS011;30245;51.966;6.292;2023-11-19T09:46:23;17.67;;;2.40;;
44536;SDS011;30245;51.966;6.292;2023-11-19T09:48:49;18.73;;;2.90;;
44536;SDS011;30245;51.966;6.292;2023-11-19T09:51:20;19.20;;;3.55;;
44536;SDS011;30245;51.966;6.292;2023-11-19T09:53:46;13.82;;;2.75;;
44536;SDS011;30245;51.966;6.292;2023-11-19T09:56:11;23.67;;;3.83;;
44536;SDS011;30245;51.966;6.292;2023-11-19T09:58:37;21.08;;;3.15;;
44536;SDS011;30245;51.966;6.292;2023-11-19T10:01:03;21.38;;;3.95;;
44536;SDS011;30245;51.966;6.292;2023-11-19T10:06:03;24.55;;;5.38;;
44536;SDS011;30245;51.966;6.292;2023-11-19T10:08:29;23.80;;;3.35;;
44536;SDS011;30245;51.966;6.292;2023-11-19T10:10:55;18.98;;;3.05;;
44536;SDS011;30245;51.966;6.292;2023-11-19T10:13:25;15.43;;;3.22;;
44536;SDS011;30245;51.966;6.292;2023-11-19T10:15:52;30.65;;;5.13;;
44536;SDS011;30245;51.966;6.292;2023-11-19T10:18:18;22.95;;;3.15;;
44536;SDS011;30245;51.966;6.292;2023-11-19T10:20:48;25.45;;;4.22;;
44536;SDS011;30245;51.966;6.292;2023-11-19T10:23:14;18.73;;;2.08;;
44536;SDS011;30245;51.966;6.292;2023-11-19T10:25:40;20.42;;;3.50;;
44536;SDS011;30245;51.966;6.292;2023-11-19T10:28:05;21.90;;;3.15;;
44536;SDS011;30245;51.966;6.292;2023-11-19T10:30:31;26.52;;;4.18;;
44536;SDS011;30245;51.966;6.292;2023-11-19T10:33:05;34.85;;;6.18;;
44536;SDS011;30245;51.966;6.292;2023-11-19T10:35:36;23.02;;;3.20;;
44536;SDS011;30245;51.966;6.292;2023-11-19T10:38:17;36.95;;;5.68;;
44536;SDS011;30245;51.966;6.292;2023-11-19T10:40:42;25.73;;;4.10;;
44536;SDS011;30245;51.966;6.292;2023-11-19T10:43:08;20.80;;;4.07;;
44536;SDS011;30245;51.966;6.292;2023-11-19T10:45:35;17.35;;;2.72;;
44536;SDS011;30245;51.966;6.292;2023-11-19T10:48:02;15.98;;;2.45;;
44536;SDS011;30245;51.966;6.292;2023-11-19T10:50:38;18.92;;;2.75;;
44536;SDS011;30245;51.966;6.292;2023-11-19T10:53:08;32.70;;;4.18;;
44536;SDS011;30245;51.966;6.292;2023-11-19T10:55:35;31.90;;;4.57;;
44536;SDS011;30245;51.966;6.292;2023-11-19T11:00:30;19.40;;;2.33;;
44536;SDS011;30245;51.966;6.292;2023-11-19T11:03:05;18.52;;;2.50;;
44536;SDS011;30245;51.966;6.292;2023-11-19T11:05:45;16.50;;;2.83;;
44536;SDS011;30245;51.966;6.292;2023-11-19T11:08:12;17.83;;;4.00;;
44536;SDS011;30245;51.966;6.292;2023-11-19T11:10:51;22.02;;;3.25;;
44536;SDS011;30245;51.966;6.292;2023-11-19T11:13:19;21.98;;;2.08;;
44536;SDS011;30245;51.966;6.292;2023-11-19T11:15:48;17.17;;;3.25;;
44536;SDS011;30245;51.966;6.292;2023-11-19T11:18:15;23.60;;;2.60;;
44536;SDS011;30245;51.966;6.292;2023-11-19T11:20:43;23.48;;;3.55;;
44536;SDS011;30245;51.966;6.292;2023-11-19T11:31:41;23.27;;;3.05;;
44536;SDS011;30245;51.966;6.292;2023-11-19T11:37:08;20.38;;;3.42;;
44536;SDS011;30245;51.966;6.292;2023-11-19T11:39:56;15.13;;;3.80;;
44536;SDS011;30245;51.966;6.292;2023-11-19T11:55:27;17.88;;;3.17;;
44536;SDS011;30245;51.966;6.292;2023-11-19T11:57:59;23.77;;;3.70;;
44536;SDS011;30245;51.966;6.292;2023-11-19T12:00:38;19.40;;;4.07;;
44536;SDS011;30245;51.966;6.292;2023-11-19T12:03:05;30.85;;;4.20;;
44536;SDS011;30245;51.966;6.292;2023-11-19T12:05:32;19.38;;;3.50;;
44536;SDS011;30245;51.966;6.292;2023-11-19T12:08:03;18.83;;;2.88;;
44536;SDS011;30245;51.966;6.292;2023-11-19T12:13:03;32.35;;;4.53;;
44536;SDS011;30245;51.966;6.292;2023-11-19T12:15:31;24.27;;;3.97;;
44536;SDS011;30245;51.966;6.292;2023-11-19T12:17:57;22.05;;;3.95;;
44536;SDS011;30245;51.966;6.292;2023-11-19T12:20:24;22.92;;;3.15;;
44536;SDS011;30245;51.966;6.292;2023-11-19T12:22:51;11.15;;;1.60;;
44536;SDS011;30245;51.966;6.292;2023-11-19T12:25:18;13.40;;;2.55;;
44536;SDS011;30245;51.966;6.292;2023-11-19T12:27:48;12.30;;;1.35;;
44536;SDS011;30245;51.966;6.292;2023-11-19T12:32:48;12.70;;;1.73;;
44536;SDS011;30245;51.966;6.292;2023-11-19T12:35:14;18.27;;;2.63;;
44536;SDS011;30245;51.966;6.292;2023-11-19T12:42:42;16.75;;;2.78;;
44536;SDS011;30245;51.966;6.292;2023-11-19T12:45:09;16.30;;;4.43;;
44536;SDS011;30245;51.966;6.292;2023-11-19T12:47:36;13.50;;;2.50;;
44536;SDS011;30245;51.966;6.292;2023-11-19T12:50:02;18.60;;;3.00;;
44536;SDS011;30245;51.966;6.292;2023-11-19T12:52:29;19.10;;;3.30;;
44536;SDS011;30245;51.966;6.292;2023-11-19T12:54:55;17.13;;;1.55;;
44536;SDS011;30245;51.966;6.292;2023-11-19T12:57:35;9.38;;;1.80;;
44536;SDS011;30245;51.966;6.292;2023-11-19T13:00:01;13.70;;;2.28;;
44536;SDS011;30245;51.966;6.292;2023-11-19T13:02:46;15.32;;;3.38;;
44536;SDS011;30245;51.966;6.292;2023-11-19T13:05:26;16.25;;;2.83;;
44536;SDS011;30245;51.966;6.292;2023-11-19T13:08:10;15.52;;;1.73;;
44536;SDS011;30245;51.966;6.292;2023-11-19T13:13:16;10.05;;;1.60;;
44536;SDS011;30245;51.966;6.292;2023-11-19T13:15:41;8.52;;;1.27;;
44536;SDS011;30245;51.966;6.292;2023-11-19T13:18:09;9.63;;;1.80;;
44536;SDS011;30245;51.966;6.292;2023-11-19T13:20:35;18.00;;;2.30;;
44536;SDS011;30245;51.966;6.292;2023-11-19T13:23:03;15.18;;;2.47;;
44536;SDS011;30245;51.966;6.292;2023-11-19T13:27:55;15.43;;;2.65;;
44536;SDS011;30245;51.966;6.292;2023-11-19T13:30:21;17.27;;;2.47;;
44536;SDS011;30245;51.966;6.292;2023-11-19T13:32:48;17.00;;;2.22;;
44536;SDS011;30245;51.966;6.292;2023-11-19T13:35:14;7.95;;;1.17;;
44536;SDS011;30245;51.966;6.292;2023-11-19T13:37:40;14.00;;;2.85;;
44536;SDS011;30245;51.966;6.292;2023-11-19T13:40:06;14.18;;;1.77;;
44536;SDS011;30245;51.966;6.292;2023-11-19T13:45:07;12.10;;;1.33;;
44536;SDS011;30245;51.966;6.292;2023-11-19T13:47:37;19.23;;;2.33;;
44536;SDS011;30245;51.966;6.292;2023-11-19T13:50:07;14.18;;;2.50;;
44536;SDS011;30245;51.966;6.292;2023-11-19T13:52:34;12.43;;;1.92;;
44536;SDS011;30245;51.966;6.292;2023-11-19T13:55:00;14.10;;;2.20;;
44536;SDS011;30245;51.966;6.292;2023-11-19T13:57:25;12.05;;;2.28;;
44536;SDS011;30245;51.966;6.292;2023-11-19T13:59:51;17.15;;;2.80;;
44536;SDS011;30245;51.966;6.292;2023-11-19T14:02:16;13.27;;;1.88;;
44536;SDS011;30245;51.966;6.292;2023-11-19T14:04:42;17.90;;;2.92;;
44536;SDS011;30245;51.966;6.292;2023-11-19T14:07:07;16.88;;;2.40;;
44536;SDS011;30245;51.966;6.292;2023-11-19T14:09:33;8.32;;;2.05;;
44536;SDS011;30245;51.966;6.292;2023-11-19T14:11:58;14.93;;;2.20;;
44536;SDS011;30245;51.966;6.292;2023-11-19T14:14:24;12.88;;;2.05;;
44536;SDS011;30245;51.966;6.292;2023-11-19T14:16:50;18.73;;;2.63;;
44536;SDS011;30245;51.966;6.292;2023-11-19T14:19:15;14.05;;;1.92;;
44536;SDS011;30245;51.966;6.292;2023-11-19T14:21:41;10.10;;;1.98;;
44536;SDS011;30245;51.966;6.292;2023-11-19T14:24:07;9.20;;;2.05;;
44536;SDS011;30245;51.966;6.292;2023-11-19T14:26:32;11.68;;;2.40;;
44536;SDS011;30245;51.966;6.292;2023-11-19T14:28:58;13.25;;;2.10;;
44536;SDS011;30245;51.966;6.292;2023-11-19T14:31:27;11.70;;;1.90;;
44536;SDS011;30245;51.966;6.292;2023-11-19T14:33:53;8.88;;;1.23;;
44536;SDS011;30245;51.966;6.292;2023-11-19T14:36:19;7.35;;;1.30;;
44536;SDS011;30245;51.966;6.292;2023-11-19T14:38:45;9.45;;;1.08;;
44536;SDS011;30245;51.966;6.292;2023-11-19T14:41:11;7.68;;;1.52;;
44536;SDS011;30245;51.966;6.292;2023-11-19T14:43:38;9.65;;;2.20;;
44536;SDS011;30245;51.966;6.292;2023-11-19T14:46:04;13.73;;;2.55;;
44536;SDS011;30245;51.966;6.292;2023-11-19T14:48:31;15.88;;;1.98;;
44536;SDS011;30245;51.966;6.292;2023-11-19T14:50:57;12.57;;;2.40;;
44536;SDS011;30245;51.966;6.292;2023-11-19T14:53:23;22.75;;;3.45;;
44536;SDS011;30245;51.966;6.292;2023-11-19T14:55:48;9.00;;;1.73;;
44536;SDS011;30245;51.966;6.292;2023-11-19T14:58:14;10.48;;;1.92;;
44536;SDS011;30245;51.966;6.292;2023-11-19T15:00:39;20.83;;;1.58;;
44536;SDS011;30245;51.966;6.292;2023-11-19T15:03:05;22.60;;;2.42;;
44536;SDS011;30245;51.966;6.292;2023-11-19T15:05:31;13.35;;;2.15;;
44536;SDS011;30245;51.966;6.292;2023-11-19T15:07:56;7.47;;;1.35;;
44536;SDS011;30245;51.966;6.292;2023-11-19T15:10:22;14.00;;;2.25;;
44536;SDS011;30245;51.966;6.292;2023-11-19T15:12:49;14.55;;;2.60;;
44536;SDS011;30245;51.966;6.292;2023-11-19T15:15:15;13.00;;;2.78;;
44536;SDS011;30245;51.966;6.292;2023-11-19T15:17:41;13.90;;;1.70;;
44536;SDS011;30245;51.966;6.292;2023-11-19T15:20:07;19.05;;;2.85;;
44536;SDS011;30245;51.966;6.292;2023-11-19T15:22:33;17.52;;;2.47;;
44536;SDS011;30245;51.966;6.292;2023-11-19T15:24:58;14.40;;;1.60;;